sensor_id;sensor_type;location;lat;lon;timestamp;temperature;humidity
16505;HTU21D;8365;51.030;4.696;2023-02-28T00:00:30;3.02;88.27
16505;HTU21D;8365;51.030;4.696;2023-02-28T00:03:02;2.98;88.60
16505;HTU21D;8365;51.030;4.696;2023-02-28T00:05:32;2.91;89.90
16505;HTU21D;8365;51.030;4.696;2023-02-28T00:08:03;2.96;89.47
16505;HTU21D;8365;51.030;4.696;2023-02-28T00:10:33;2.98;89.02
16505;HTU21D;8365;51.030;4.696;2023-02-28T00:13:06;2.91;89.95
16505;HTU21D;8365;51.030;4.696;2023-02-28T00:15:37;2.99;88.86
16505;HTU21D;8365;51.030;4.696;2023-02-28T00:18:07;3.00;88.80
16505;HTU21D;8365;51.030;4.696;2023-02-28T00:20:37;2.94;89.16
16505;HTU21D;8365;51.030;4.696;2023-02-28T00:23:08;2.89;89.94
16505;HTU21D;8365;51.030;4.696;2023-02-28T00:25:38;2.97;89.24
16505;HTU21D;8365;51.030;4.696;2023-02-28T00:28:09;3.01;88.99
16505;HTU21D;8365;51.030;4.696;2023-02-28T00:30:39;2.98;88.71
16505;HTU21D;8365;51.030;4.696;2023-02-28T00:33:10;2.95;89.12
16505;HTU21D;8365;51.030;4.696;2023-02-28T00:35:41;2.95;88.68
16505;HTU21D;8365;51.030;4.696;2023-02-28T00:38:13;2.90;88.89
16505;HTU21D;8365;51.030;4.696;2023-02-28T00:40:43;2.88;88.36
16505;HTU21D;8365;51.030;4.696;2023-02-28T00:43:14;2.88;87.52
16505;HTU21D;8365;51.030;4.696;2023-02-28T00:45:44;2.87;88.41
16505;HTU21D;8365;51.030;4.696;2023-02-28T00:48:15;2.88;88.20
16505;HTU21D;8365;51.030;4.696;2023-02-28T00:50:48;2.86;88.11
16505;HTU21D;8365;51.030;4.696;2023-02-28T00:53:20;2.81;87.75
16505;HTU21D;8365;51.030;4.696;2023-02-28T00:55:50;2.80;88.41
16505;HTU21D;8365;51.030;4.696;2023-02-28T00:58:21;2.75;88.41
16505;HTU21D;8365;51.030;4.696;2023-02-28T01:00:52;2.65;88.99
16505;HTU21D;8365;51.030;4.696;2023-02-28T01:03:23;2.61;89.79
16505;HTU21D;8365;51.030;4.696;2023-02-28T01:05:53;2.57;90.18
16505;HTU21D;8365;51.030;4.696;2023-02-28T01:08:24;2.57;89.92
16505;HTU21D;8365;51.030;4.696;2023-02-28T01:10:56;2.57;89.60
16505;HTU21D;8365;51.030;4.696;2023-02-28T01:13:26;2.47;90.66
16505;HTU21D;8365;51.030;4.696;2023-02-28T01:15:57;2.50;90.92
16505;HTU21D;8365;51.030;4.696;2023-02-28T01:18:27;2.45;91.29
16505;HTU21D;8365;51.030;4.696;2023-02-28T01:21:06;2.40;91.65
16505;HTU21D;8365;51.030;4.696;2023-02-28T01:23:37;2.37;92.42
16505;HTU21D;8365;51.030;4.696;2023-02-28T01:26:10;2.36;92.74
16505;HTU21D;8365;51.030;4.696;2023-02-28T01:28:41;2.22;94.71
16505;HTU21D;8365;51.030;4.696;2023-02-28T01:31:12;2.24;95.20
16505;HTU21D;8365;51.030;4.696;2023-02-28T01:33:43;2.20;96.32
16505;HTU21D;8365;51.030;4.696;2023-02-28T01:36:16;2.22;95.97
16505;HTU21D;8365;51.030;4.696;2023-02-28T01:38:48;2.20;96.71
16505;HTU21D;8365;51.030;4.696;2023-02-28T01:41:29;2.09;97.49
16505;HTU21D;8365;51.030;4.696;2023-02-28T01:44:07;2.14;97.19
16505;HTU21D;8365;51.030;4.696;2023-02-28T01:46:56;2.01;98.67
16505;HTU21D;8365;51.030;4.696;2023-02-28T01:49:27;2.12;98.39
16505;HTU21D;8365;51.030;4.696;2023-02-28T01:51:57;2.08;97.83
16505;HTU21D;8365;51.030;4.696;2023-02-28T01:54:30;1.97;99.41
16505;HTU21D;8365;51.030;4.696;2023-02-28T01:57:05;2.01;98.69
16505;HTU21D;8365;51.030;4.696;2023-02-28T01:59:59;2.00;100.13
16505;HTU21D;8365;51.030;4.696;2023-02-28T02:02:31;2.08;99.34
16505;HTU21D;8365;51.030;4.696;2023-02-28T02:05:15;2.07;99.56
16505;HTU21D;8365;51.030;4.696;2023-02-28T02:07:48;2.06;99.05
16505;HTU21D;8365;51.030;4.696;2023-02-28T02:10:33;2.12;98.48
16505;HTU21D;8365;51.030;4.696;2023-02-28T02:18:32;2.09;98.90
16505;HTU21D;8365;51.030;4.696;2023-02-28T02:35:34;1.79;100.51
16505;HTU21D;8365;51.030;4.696;2023-02-28T02:38:23;1.78;99.93
16505;HTU21D;8365;51.030;4.696;2023-02-28T02:43:51;1.73;100.56
16505;HTU21D;8365;51.030;4.696;2023-02-28T02:46:30;1.78;100.35
16505;HTU21D;8365;51.030;4.696;2023-02-28T02:49:06;1.73;100.64
16505;HTU21D;8365;51.030;4.696;2023-02-28T02:51:40;1.75;100.81
16505;HTU21D;8365;51.030;4.696;2023-02-28T02:54:15;1.77;101.00
16505;HTU21D;8365;51.030;4.696;2023-02-28T02:56:50;1.83;100.14
16505;HTU21D;8365;51.030;4.696;2023-02-28T02:59:22;1.84;99.81
16505;HTU21D;8365;51.030;4.696;2023-02-28T03:02:00;1.82;99.80
16505;HTU21D;8365;51.030;4.696;2023-02-28T03:04:36;1.79;100.64
16505;HTU21D;8365;51.030;4.696;2023-02-28T03:07:08;1.77;101.52
16505;HTU21D;8365;51.030;4.696;2023-02-28T03:09:39;1.69;102.88
16505;HTU21D;8365;51.030;4.696;2023-02-28T03:12:12;1.66;103.24
16505;HTU21D;8365;51.030;4.696;2023-02-28T03:15:10;1.72;102.18
16505;HTU21D;8365;51.030;4.696;2023-02-28T03:18:10;1.71;101.53
16505;HTU21D;8365;51.030;4.696;2023-02-28T03:21:00;1.73;101.41
16505;HTU21D;8365;51.030;4.696;2023-02-28T03:23:42;1.73;101.15
16505;HTU21D;8365;51.030;4.696;2023-02-28T03:26:22;1.56;103.26
16505;HTU21D;8365;51.030;4.696;2023-02-28T03:31:33;1.53;103.66
16505;HTU21D;8365;51.030;4.696;2023-02-28T03:34:19;1.52;104.24
16505;HTU21D;8365;51.030;4.696;2023-02-28T03:36:57;1.55;103.14
16505;HTU21D;8365;51.030;4.696;2023-02-28T03:39:35;1.49;103.55
16505;HTU21D;8365;51.030;4.696;2023-02-28T03:42:21;1.58;103.10
16505;HTU21D;8365;51.030;4.696;2023-02-28T03:44:56;1.50;103.79
16505;HTU21D;8365;51.030;4.696;2023-02-28T03:47:47;1.55;103.64
16505;HTU21D;8365;51.030;4.696;2023-02-28T03:50:46;1.48;104.40
16505;HTU21D;8365;51.030;4.696;2023-02-28T03:53:45;1.58;103.39
16505;HTU21D;8365;51.030;4.696;2023-02-28T03:56:34;1.58;103.14
16505;HTU21D;8365;51.030;4.696;2023-02-28T03:59:17;1.56;103.52
16505;HTU21D;8365;51.030;4.696;2023-02-28T04:01:49;1.56;103.23
16505;HTU21D;8365;51.030;4.696;2023-02-28T04:04:22;1.62;103.12
16505;HTU21D;8365;51.030;4.696;2023-02-28T04:07:01;1.64;102.25
16505;HTU21D;8365;51.030;4.696;2023-02-28T04:09:32;1.55;103.10
16505;HTU21D;8365;51.030;4.696;2023-02-28T04:12:03;1.64;102.80
16505;HTU21D;8365;51.030;4.696;2023-02-28T04:14:34;1.67;102.60
16505;HTU21D;8365;51.030;4.696;2023-02-28T04:17:04;1.68;102.38
16505;HTU21D;8365;51.030;4.696;2023-02-28T04:19:35;1.71;101.90
16505;HTU21D;8365;51.030;4.696;2023-02-28T04:22:05;1.63;102.35
16505;HTU21D;8365;51.030;4.696;2023-02-28T04:24:36;1.73;101.38
16505;HTU21D;8365;51.030;4.696;2023-02-28T04:27:07;1.73;101.25
16505;HTU21D;8365;51.030;4.696;2023-02-28T04:29:38;1.72;101.49
16505;HTU21D;8365;51.030;4.696;2023-02-28T04:32:08;1.76;101.12
16505;HTU21D;8365;51.030;4.696;2023-02-28T04:34:39;1.78;101.57
16505;HTU21D;8365;51.030;4.696;2023-02-28T04:37:09;1.82;101.50
16505;HTU21D;8365;51.030;4.696;2023-02-28T04:39:41;1.92;101.09
16505;HTU21D;8365;51.030;4.696;2023-02-28T04:42:12;1.93;101.99
16505;HTU21D;8365;51.030;4.696;2023-02-28T04:44:42;1.72;106.30
16505;HTU21D;8365;51.030;4.696;2023-02-28T04:47:13;1.99;104.50
16505;HTU21D;8365;51.030;4.696;2023-02-28T04:49:43;1.94;105.53
16505;HTU21D;8365;51.030;4.696;2023-02-28T04:52:14;1.95;105.05
16505;HTU21D;8365;51.030;4.696;2023-02-28T04:54:44;1.76;105.65
16505;HTU21D;8365;51.030;4.696;2023-02-28T04:57:15;1.96;105.93
16505;HTU21D;8365;51.030;4.696;2023-02-28T04:59:48;2.25;104.15
16505;HTU21D;8365;51.030;4.696;2023-02-28T05:02:18;2.24;104.42
16505;HTU21D;8365;51.030;4.696;2023-02-28T05:04:50;2.35;104.40
16505;HTU21D;8365;51.030;4.696;2023-02-28T05:07:20;2.41;103.70
16505;HTU21D;8365;51.030;4.696;2023-02-28T05:09:51;2.37;103.12
16505;HTU21D;8365;51.030;4.696;2023-02-28T05:12:21;2.53;102.53
16505;HTU21D;8365;51.030;4.696;2023-02-28T05:14:52;2.47;101.73
16505;HTU21D;8365;51.030;4.696;2023-02-28T05:17:22;2.58;101.88
16505;HTU21D;8365;51.030;4.696;2023-02-28T05:19:52;2.70;100.86
16505;HTU21D;8365;51.030;4.696;2023-02-28T05:22:23;2.70;100.39
16505;HTU21D;8365;51.030;4.696;2023-02-28T05:24:53;2.76;99.74
16505;HTU21D;8365;51.030;4.696;2023-02-28T05:27:24;2.85;99.69
16505;HTU21D;8365;51.030;4.696;2023-02-28T05:29:55;2.79;99.16
16505;HTU21D;8365;51.030;4.696;2023-02-28T05:32:26;2.73;99.71
16505;HTU21D;8365;51.030;4.696;2023-02-28T05:34:56;2.80;99.93
16505;HTU21D;8365;51.030;4.696;2023-02-28T05:37:27;2.90;98.87
16505;HTU21D;8365;51.030;4.696;2023-02-28T05:39:59;2.94;98.26
16505;HTU21D;8365;51.030;4.696;2023-02-28T05:42:30;3.00;98.06
16505;HTU21D;8365;51.030;4.696;2023-02-28T05:45:00;3.05;97.74
16505;HTU21D;8365;51.030;4.696;2023-02-28T05:47:31;2.91;98.73
16505;HTU21D;8365;51.030;4.696;2023-02-28T05:50:02;3.05;97.72
16505;HTU21D;8365;51.030;4.696;2023-02-28T05:52:33;3.11;97.65
16505;HTU21D;8365;51.030;4.696;2023-02-28T05:55:04;3.10;97.96
16505;HTU21D;8365;51.030;4.696;2023-02-28T05:57:34;3.14;97.74
16505;HTU21D;8365;51.030;4.696;2023-02-28T06:00:08;2.88;98.66
16505;HTU21D;8365;51.030;4.696;2023-02-28T06:02:39;3.10;97.22
16505;HTU21D;8365;51.030;4.696;2023-02-28T06:05:16;2.93;98.40
16505;HTU21D;8365;51.030;4.696;2023-02-28T06:07:46;3.15;96.97
16505;HTU21D;8365;51.030;4.696;2023-02-28T06:10:17;3.00;97.62
16505;HTU21D;8365;51.030;4.696;2023-02-28T06:12:50;3.08;97.46
16505;HTU21D;8365;51.030;4.696;2023-02-28T06:15:20;3.15;97.36
16505;HTU21D;8365;51.030;4.696;2023-02-28T06:17:51;3.09;97.57
16505;HTU21D;8365;51.030;4.696;2023-02-28T06:20:24;3.11;96.69
16505;HTU21D;8365;51.030;4.696;2023-02-28T06:22:56;2.95;97.65
16505;HTU21D;8365;51.030;4.696;2023-02-28T06:25:28;3.15;97.09
16505;HTU21D;8365;51.030;4.696;2023-02-28T06:27:59;3.23;96.55
16505;HTU21D;8365;51.030;4.696;2023-02-28T06:30:29;3.23;96.42
16505;HTU21D;8365;51.030;4.696;2023-02-28T06:33:03;3.27;95.92
16505;HTU21D;8365;51.030;4.696;2023-02-28T06:35:34;3.05;96.99
16505;HTU21D;8365;51.030;4.696;2023-02-28T06:38:04;2.87;98.43
16505;HTU21D;8365;51.030;4.696;2023-02-28T06:40:35;2.89;99.21
16505;HTU21D;8365;51.030;4.696;2023-02-28T06:43:06;2.71;101.22
16505;HTU21D;8365;51.030;4.696;2023-02-28T06:45:37;2.90;99.51
16505;HTU21D;8365;51.030;4.696;2023-02-28T06:48:07;2.89;99.67
16505;HTU21D;8365;51.030;4.696;2023-02-28T06:50:38;2.75;100.26
16505;HTU21D;8365;51.030;4.696;2023-02-28T06:53:08;2.78;100.71
16505;HTU21D;8365;51.030;4.696;2023-02-28T06:55:39;2.75;100.69
16505;HTU21D;8365;51.030;4.696;2023-02-28T06:58:14;2.83;101.29
16505;HTU21D;8365;51.030;4.696;2023-02-28T07:00:45;2.85;100.65
16505;HTU21D;8365;51.030;4.696;2023-02-28T07:03:16;2.95;100.52
16505;HTU21D;8365;51.030;4.696;2023-02-28T07:05:47;2.97;100.50
16505;HTU21D;8365;51.030;4.696;2023-02-28T07:08:20;2.98;99.48
16505;HTU21D;8365;51.030;4.696;2023-02-28T07:10:55;2.94;100.31
16505;HTU21D;8365;51.030;4.696;2023-02-28T07:13:25;2.98;99.03
16505;HTU21D;8365;51.030;4.696;2023-02-28T07:16:04;2.83;99.18
16505;HTU21D;8365;51.030;4.696;2023-02-28T07:18:36;2.97;99.01
16505;HTU21D;8365;51.030;4.696;2023-02-28T07:21:08;2.87;99.86
16505;HTU21D;8365;51.030;4.696;2023-02-28T07:23:39;2.93;98.56
16505;HTU21D;8365;51.030;4.696;2023-02-28T07:26:16;2.89;99.38
16505;HTU21D;8365;51.030;4.696;2023-02-28T07:28:48;3.11;98.95
16505;HTU21D;8365;51.030;4.696;2023-02-28T07:31:18;3.19;98.50
16505;HTU21D;8365;51.030;4.696;2023-02-28T07:33:49;3.38;97.37
16505;HTU21D;8365;51.030;4.696;2023-02-28T07:36:20;3.76;94.62
16505;HTU21D;8365;51.030;4.696;2023-02-28T07:38:52;4.27;91.47
16505;HTU21D;8365;51.030;4.696;2023-02-28T07:41:25;4.71;87.91
16505;HTU21D;8365;51.030;4.696;2023-02-28T07:43:57;5.20;85.22
16505;HTU21D;8365;51.030;4.696;2023-02-28T07:46:29;5.72;82.37
16505;HTU21D;8365;51.030;4.696;2023-02-28T07:49:05;6.01;77.94
16505;HTU21D;8365;51.030;4.696;2023-02-28T07:51:36;6.73;74.53
16505;HTU21D;8365;51.030;4.696;2023-02-28T07:54:06;7.07;72.74
16505;HTU21D;8365;51.030;4.696;2023-02-28T07:56:37;7.26;71.58
16505;HTU21D;8365;51.030;4.696;2023-02-28T07:59:08;7.33;70.84
16505;HTU21D;8365;51.030;4.696;2023-02-28T08:01:39;7.90;67.59
16505;HTU21D;8365;51.030;4.696;2023-02-28T08:04:10;8.47;64.44
16505;HTU21D;8365;51.030;4.696;2023-02-28T08:06:40;8.37;62.83
16505;HTU21D;8365;51.030;4.696;2023-02-28T08:09:10;8.96;60.51
16505;HTU21D;8365;51.030;4.696;2023-02-28T08:11:41;8.75;59.86
16505;HTU21D;8365;51.030;4.696;2023-02-28T08:14:12;8.76;58.24
16505;HTU21D;8365;51.030;4.696;2023-02-28T08:16:42;8.49;59.14
16505;HTU21D;8365;51.030;4.696;2023-02-28T08:19:13;9.06;57.46
16505;HTU21D;8365;51.030;4.696;2023-02-28T08:21:43;8.59;57.95
16505;HTU21D;8365;51.030;4.696;2023-02-28T08:24:14;9.11;54.87
16505;HTU21D;8365;51.030;4.696;2023-02-28T08:26:44;9.37;53.36
16505;HTU21D;8365;51.030;4.696;2023-02-28T08:29:15;9.29;54.12
16505;HTU21D;8365;51.030;4.696;2023-02-28T08:31:48;8.63;55.13
16505;HTU21D;8365;51.030;4.696;2023-02-28T08:34:19;8.94;52.11
16505;HTU21D;8365;51.030;4.696;2023-02-28T08:36:49;8.42;53.37
16505;HTU21D;8365;51.030;4.696;2023-02-28T08:39:20;8.47;53.59
16505;HTU21D;8365;51.030;4.696;2023-02-28T08:41:50;7.79;55.18
16505;HTU21D;8365;51.030;4.696;2023-02-28T08:44:21;7.58;55.00
16505;HTU21D;8365;51.030;4.696;2023-02-28T08:46:53;7.84;54.95
16505;HTU21D;8365;51.030;4.696;2023-02-28T08:49:24;7.69;55.11
16505;HTU21D;8365;51.030;4.696;2023-02-28T08:51:54;7.81;53.12
16505;HTU21D;8365;51.030;4.696;2023-02-28T08:54:27;7.72;53.94
16505;HTU21D;8365;51.030;4.696;2023-02-28T08:57:04;8.20;53.52
16505;HTU21D;8365;51.030;4.696;2023-02-28T08:59:35;8.41;52.27
16505;HTU21D;8365;51.030;4.696;2023-02-28T09:02:05;8.30;51.30
16505;HTU21D;8365;51.030;4.696;2023-02-28T09:04:38;8.15;51.42
16505;HTU21D;8365;51.030;4.696;2023-02-28T09:07:08;8.55;51.04
16505;HTU21D;8365;51.030;4.696;2023-02-28T09:09:39;9.10;48.63
16505;HTU21D;8365;51.030;4.696;2023-02-28T09:12:25;9.47;46.76
16505;HTU21D;8365;51.030;4.696;2023-02-28T09:14:55;8.95;49.18
16505;HTU21D;8365;51.030;4.696;2023-02-28T09:17:26;10.12;47.86
16505;HTU21D;8365;51.030;4.696;2023-02-28T09:19:57;10.40;45.06
16505;HTU21D;8365;51.030;4.696;2023-02-28T09:22:27;10.43;45.28
16505;HTU21D;8365;51.030;4.696;2023-02-28T09:24:58;9.65;45.01
16505;HTU21D;8365;51.030;4.696;2023-02-28T09:27:28;9.65;45.16
16505;HTU21D;8365;51.030;4.696;2023-02-28T09:29:59;9.96;44.09
16505;HTU21D;8365;51.030;4.696;2023-02-28T09:32:31;9.40;45.46
16505;HTU21D;8365;51.030;4.696;2023-02-28T09:35:04;9.27;46.78
16505;HTU21D;8365;51.030;4.696;2023-02-28T09:37:35;8.64;46.25
16505;HTU21D;8365;51.030;4.696;2023-02-28T09:40:06;10.21;44.43
16505;HTU21D;8365;51.030;4.696;2023-02-28T09:42:38;10.75;41.99
16505;HTU21D;8365;51.030;4.696;2023-02-28T09:45:36;10.93;40.55
16505;HTU21D;8365;51.030;4.696;2023-02-28T09:48:13;9.93;43.36
16505;HTU21D;8365;51.030;4.696;2023-02-28T09:50:55;9.91;41.90
16505;HTU21D;8365;51.030;4.696;2023-02-28T09:53:35;10.62;40.27
16505;HTU21D;8365;51.030;4.696;2023-02-28T09:56:18;10.73;38.08
16505;HTU21D;8365;51.030;4.696;2023-02-28T10:01:30;11.22;39.17
16505;HTU21D;8365;51.030;4.696;2023-02-28T10:06:46;12.20;35.28
16505;HTU21D;8365;51.030;4.696;2023-02-28T10:09:22;12.01;36.21
16505;HTU21D;8365;51.030;4.696;2023-02-28T10:11:56;12.21;35.05
16505;HTU21D;8365;51.030;4.696;2023-02-28T10:14:32;13.03;33.71
16505;HTU21D;8365;51.030;4.696;2023-02-28T10:17:12;13.10;33.15
16505;HTU21D;8365;51.030;4.696;2023-02-28T10:20:01;12.15;34.99
16505;HTU21D;8365;51.030;4.696;2023-02-28T10:22:53;12.47;34.22
16505;HTU21D;8365;51.030;4.696;2023-02-28T10:25:28;12.70;36.85
16505;HTU21D;8365;51.030;4.696;2023-02-28T10:28:09;13.04;32.46
16505;HTU21D;8365;51.030;4.696;2023-02-28T10:30:51;13.36;32.68
16505;HTU21D;8365;51.030;4.696;2023-02-28T10:33:30;12.81;32.12
16505;HTU21D;8365;51.030;4.696;2023-02-28T10:36:02;13.07;33.80
16505;HTU21D;8365;51.030;4.696;2023-02-28T10:38:35;12.87;34.31
16505;HTU21D;8365;51.030;4.696;2023-02-28T10:41:12;14.36;32.99
16505;HTU21D;8365;51.030;4.696;2023-02-28T10:43:44;14.38;31.17
16505;HTU21D;8365;51.030;4.696;2023-02-28T10:46:20;13.38;33.76
16505;HTU21D;8365;51.030;4.696;2023-02-28T10:49:05;14.22;31.14
16505;HTU21D;8365;51.030;4.696;2023-02-28T10:51:38;12.66;31.06
16505;HTU21D;8365;51.030;4.696;2023-02-28T10:54:18;12.60;31.96
16505;HTU21D;8365;51.030;4.696;2023-02-28T10:59:52;11.30;35.53
16505;HTU21D;8365;51.030;4.696;2023-02-28T11:02:35;11.08;35.42
16505;HTU21D;8365;51.030;4.696;2023-02-28T11:05:27;12.40;34.16
16505;HTU21D;8365;51.030;4.696;2023-02-28T11:08:15;12.76;33.97
16505;HTU21D;8365;51.030;4.696;2023-02-28T11:10:48;13.23;33.25
16505;HTU21D;8365;51.030;4.696;2023-02-28T11:13:33;13.76;30.50
16505;HTU21D;8365;51.030;4.696;2023-02-28T11:16:10;13.22;31.90
16505;HTU21D;8365;51.030;4.696;2023-02-28T11:21:19;14.52;29.35
16505;HTU21D;8365;51.030;4.696;2023-02-28T11:23:52;13.21;29.54
16505;HTU21D;8365;51.030;4.696;2023-02-28T11:26:43;14.30;28.52
16505;HTU21D;8365;51.030;4.696;2023-02-28T11:29:21;14.11;27.66
16505;HTU21D;8365;51.030;4.696;2023-02-28T11:32:21;13.23;30.03
16505;HTU21D;8365;51.030;4.696;2023-02-28T11:35:14;15.00;28.10
16505;HTU21D;8365;51.030;4.696;2023-02-28T11:37:47;15.65;29.57
16505;HTU21D;8365;51.030;4.696;2023-02-28T11:48:58;14.18;30.30
16505;HTU21D;8365;51.030;4.696;2023-02-28T11:51:35;15.09;28.35
16505;HTU21D;8365;51.030;4.696;2023-02-28T11:54:26;15.83;26.52
16505;HTU21D;8365;51.030;4.696;2023-02-28T12:08:19;16.79;23.59
16505;HTU21D;8365;51.030;4.696;2023-02-28T12:17:09;18.48;22.22
16505;HTU21D;8365;51.030;4.696;2023-02-28T12:22:31;17.33;23.47
16505;HTU21D;8365;51.030;4.696;2023-02-28T12:25:19;17.72;23.58
16505;HTU21D;8365;51.030;4.696;2023-02-28T12:27:51;17.64;22.03
16505;HTU21D;8365;51.030;4.696;2023-02-28T12:30:32;19.03;21.45
16505;HTU21D;8365;51.030;4.696;2023-02-28T12:33:13;18.82;22.26
16505;HTU21D;8365;51.030;4.696;2023-02-28T12:35:52;17.73;22.86
16505;HTU21D;8365;51.030;4.696;2023-02-28T12:38:34;17.85;21.81
16505;HTU21D;8365;51.030;4.696;2023-02-28T12:41:16;17.74;22.60
16505;HTU21D;8365;51.030;4.696;2023-02-28T12:43:55;17.90;22.50
16505;HTU21D;8365;51.030;4.696;2023-02-28T12:46:35;15.54;24.64
16505;HTU21D;8365;51.030;4.696;2023-02-28T12:49:27;15.87;26.23
16505;HTU21D;8365;51.030;4.696;2023-02-28T12:52:03;14.06;26.59
16505;HTU21D;8365;51.030;4.696;2023-02-28T12:54:43;13.79;30.39
16505;HTU21D;8365;51.030;4.696;2023-02-28T13:00:18;13.36;27.92
16505;HTU21D;8365;51.030;4.696;2023-02-28T13:11:03;15.91;25.52
16505;HTU21D;8365;51.030;4.696;2023-02-28T13:13:34;17.02;25.23
16505;HTU21D;8365;51.030;4.696;2023-02-28T13:16:07;17.68;22.93
16505;HTU21D;8365;51.030;4.696;2023-02-28T13:18:39;18.13;21.95
16505;HTU21D;8365;51.030;4.696;2023-02-28T13:21:29;17.73;22.74
16505;HTU21D;8365;51.030;4.696;2023-02-28T13:24:03;17.70;23.30
16505;HTU21D;8365;51.030;4.696;2023-02-28T13:34:39;16.61;25.14
16505;HTU21D;8365;51.030;4.696;2023-02-28T13:39:57;17.37;25.91
16505;HTU21D;8365;51.030;4.696;2023-02-28T13:47:45;16.04;23.91
16505;HTU21D;8365;51.030;4.696;2023-02-28T13:50:35;15.28;27.09
16505;HTU21D;8365;51.030;4.696;2023-02-28T13:56:05;15.52;26.84
16505;HTU21D;8365;51.030;4.696;2023-02-28T14:06:35;15.10;27.12
16505;HTU21D;8365;51.030;4.696;2023-02-28T14:11:46;15.36;27.49
16505;HTU21D;8365;51.030;4.696;2023-02-28T14:17:08;14.55;26.78
16505;HTU21D;8365;51.030;4.696;2023-02-28T14:19:46;15.76;27.66
16505;HTU21D;8365;51.030;4.696;2023-02-28T14:28:27;16.58;27.07
16505;HTU21D;8365;51.030;4.696;2023-02-28T14:31:32;16.36;26.26
16505;HTU21D;8365;51.030;4.696;2023-02-28T14:34:31;16.18;27.44
16505;HTU21D;8365;51.030;4.696;2023-02-28T14:37:05;15.72;26.52
16505;HTU21D;8365;51.030;4.696;2023-02-28T14:39:41;15.69;27.41
16505;HTU21D;8365;51.030;4.696;2023-02-28T14:42:35;15.86;25.98
16505;HTU21D;8365;51.030;4.696;2023-02-28T14:45:06;16.13;25.99
16505;HTU21D;8365;51.030;4.696;2023-02-28T14:47:36;17.04;26.17
16505;HTU21D;8365;51.030;4.696;2023-02-28T14:50:22;16.54;26.71
16505;HTU21D;8365;51.030;4.696;2023-02-28T14:52:54;16.44;26.42
16505;HTU21D;8365;51.030;4.696;2023-02-28T14:55:33;15.37;29.03
16505;HTU21D;8365;51.030;4.696;2023-02-28T14:58:06;15.74;27.45
16505;HTU21D;8365;51.030;4.696;2023-02-28T15:00:46;16.61;25.62
16505;HTU21D;8365;51.030;4.696;2023-02-28T15:06:13;15.29;26.98
16505;HTU21D;8365;51.030;4.696;2023-02-28T15:08:44;15.38;28.27
16505;HTU21D;8365;51.030;4.696;2023-02-28T15:11:17;15.44;27.73
16505;HTU21D;8365;51.030;4.696;2023-02-28T15:13:51;14.22;28.36
16505;HTU21D;8365;51.030;4.696;2023-02-28T15:16:42;14.81;28.98
16505;HTU21D;8365;51.030;4.696;2023-02-28T15:19:28;14.23;28.07
16505;HTU21D;8365;51.030;4.696;2023-02-28T15:22:15;13.93;28.85
16505;HTU21D;8365;51.030;4.696;2023-02-28T15:24:50;14.42;29.57
16505;HTU21D;8365;51.030;4.696;2023-02-28T15:27:26;15.06;27.60
16505;HTU21D;8365;51.030;4.696;2023-02-28T15:29:59;14.48;29.36
16505;HTU21D;8365;51.030;4.696;2023-02-28T15:32:38;15.30;27.76
16505;HTU21D;8365;51.030;4.696;2023-02-28T15:35:29;15.00;28.79
16505;HTU21D;8365;51.030;4.696;2023-02-28T15:40:46;14.54;29.22
16505;HTU21D;8365;51.030;4.696;2023-02-28T15:43:25;15.33;28.78
16505;HTU21D;8365;51.030;4.696;2023-02-28T15:45:57;15.29;28.05
16505;HTU21D;8365;51.030;4.696;2023-02-28T15:48:31;14.69;29.61
16505;HTU21D;8365;51.030;4.696;2023-02-28T15:51:08;15.13;27.72
16505;HTU21D;8365;51.030;4.696;2023-02-28T15:53:45;15.04;28.81
16505;HTU21D;8365;51.030;4.696;2023-02-28T15:58:59;14.40;29.71
16505;HTU21D;8365;51.030;4.696;2023-02-28T16:01:33;13.93;31.00
16505;HTU21D;8365;51.030;4.696;2023-02-28T16:04:19;13.94;30.46
16505;HTU21D;8365;51.030;4.696;2023-02-28T16:09:29;13.51;30.25
16505;HTU21D;8365;51.030;4.696;2023-02-28T16:12:02;13.50;31.27
16505;HTU21D;8365;51.030;4.696;2023-02-28T16:14:35;13.52;32.36
16505;HTU21D;8365;51.030;4.696;2023-02-28T16:17:19;13.52;31.49
16505;HTU21D;8365;51.030;4.696;2023-02-28T16:19:50;13.71;31.33
16505;HTU21D;8365;51.030;4.696;2023-02-28T16:22:21;13.75;31.30
16505;HTU21D;8365;51.030;4.696;2023-02-28T16:24:52;13.67;31.63
16505;HTU21D;8365;51.030;4.696;2023-02-28T16:27:36;13.53;30.96
16505;HTU21D;8365;51.030;4.696;2023-02-28T16:30:09;13.06;33.01
16505;HTU21D;8365;51.030;4.696;2023-02-28T16:32:47;12.48;32.08
16505;HTU21D;8365;51.030;4.696;2023-02-28T16:35:19;12.25;33.75
16505;HTU21D;8365;51.030;4.696;2023-02-28T16:37:53;11.97;34.19
16505;HTU21D;8365;51.030;4.696;2023-02-28T16:40:25;12.04;33.18
16505;HTU21D;8365;51.030;4.696;2023-02-28T16:42:58;12.08;34.00
16505;HTU21D;8365;51.030;4.696;2023-02-28T16:45:29;12.13;33.72
16505;HTU21D;8365;51.030;4.696;2023-02-28T16:48:00;12.19;33.86
16505;HTU21D;8365;51.030;4.696;2023-02-28T16:50:31;12.02;34.92
16505;HTU21D;8365;51.030;4.696;2023-02-28T16:53:02;11.99;34.90
16505;HTU21D;8365;51.030;4.696;2023-02-28T16:55:34;11.87;35.34
16505;HTU21D;8365;51.030;4.696;2023-02-28T16:58:05;11.79;35.47
16505;HTU21D;8365;51.030;4.696;2023-02-28T17:00:35;11.38;35.55
16505;HTU21D;8365;51.030;4.696;2023-02-28T17:03:28;11.38;35.89
16505;HTU21D;8365;51.030;4.696;2023-02-28T17:05:58;11.00;36.28
16505;HTU21D;8365;51.030;4.696;2023-02-28T17:08:30;10.51;37.88
16505;HTU21D;8365;51.030;4.696;2023-02-28T17:11:02;10.06;38.98
16505;HTU21D;8365;51.030;4.696;2023-02-28T17:13:32;9.76;39.45
16505;HTU21D;8365;51.030;4.696;2023-02-28T17:16:05;9.56;39.56
16505;HTU21D;8365;51.030;4.696;2023-02-28T17:18:35;9.31;40.55
16505;HTU21D;8365;51.030;4.696;2023-02-28T17:21:13;9.12;40.78
16505;HTU21D;8365;51.030;4.696;2023-02-28T17:23:44;8.77;41.92
16505;HTU21D;8365;51.030;4.696;2023-02-28T17:26:16;8.71;42.29
16505;HTU21D;8365;51.030;4.696;2023-02-28T17:28:51;8.53;42.26
16505;HTU21D;8365;51.030;4.696;2023-02-28T17:31:26;8.11;43.87
16505;HTU21D;8365;51.030;4.696;2023-02-28T17:33:57;8.09;43.44
16505;HTU21D;8365;51.030;4.696;2023-02-28T17:36:27;7.99;43.94
16505;HTU21D;8365;51.030;4.696;2023-02-28T17:38:58;7.65;44.91
16505;HTU21D;8365;51.030;4.696;2023-02-28T17:41:29;7.60;45.54
16505;HTU21D;8365;51.030;4.696;2023-02-28T17:44:03;7.50;46.15
16505;HTU21D;8365;51.030;4.696;2023-02-28T17:46:33;7.55;45.77
16505;HTU21D;8365;51.030;4.696;2023-02-28T17:49:04;7.55;46.10
16505;HTU21D;8365;51.030;4.696;2023-02-28T17:51:35;7.49;46.14
16505;HTU21D;8365;51.030;4.696;2023-02-28T17:54:05;7.44;46.44
16505;HTU21D;8365;51.030;4.696;2023-02-28T17:56:36;7.42;46.54
16505;HTU21D;8365;51.030;4.696;2023-02-28T17:59:09;7.41;45.61
16505;HTU21D;8365;51.030;4.696;2023-02-28T18:01:40;7.40;45.91
16505;HTU21D;8365;51.030;4.696;2023-02-28T18:04:10;7.31;46.39
16505;HTU21D;8365;51.030;4.696;2023-02-28T18:06:43;7.32;46.60
16505;HTU21D;8365;51.030;4.696;2023-02-28T18:09:21;7.27;47.41
16505;HTU21D;8365;51.030;4.696;2023-02-28T18:11:54;7.22;47.23
16505;HTU21D;8365;51.030;4.696;2023-02-28T18:14:25;7.23;48.02
16505;HTU21D;8365;51.030;4.696;2023-02-28T18:16:55;7.18;48.20
16505;HTU21D;8365;51.030;4.696;2023-02-28T18:19:26;7.09;48.14
16505;HTU21D;8365;51.030;4.696;2023-02-28T18:21:57;7.07;47.95
16505;HTU21D;8365;51.030;4.696;2023-02-28T18:24:27;7.11;48.18
16505;HTU21D;8365;51.030;4.696;2023-02-28T18:26:58;7.05;48.57
16505;HTU21D;8365;51.030;4.696;2023-02-28T18:29:29;6.99;48.67